Terminal Aerodrome Forecast
Issued by NWS

Home | Current Version | Previous Version | Text Only | Print | Product List | Glossary On
Versions: 1 2 3 4 5 6 7 8 9 10 11 12 13 14 15 16 17 18 19
000
FTUS43 KAPX 070540
TAFTVC
TAF
KTVC 070540Z 0706/0806 VRB03KT P6SM SCT060 BKN120
     FM071400 19008KT P6SM SCT250
     FM071700 18010G17KT P6SM SCT070
     FM080100 18006KT P6SM SCT070
     FM080300 16005KT P6SM SCT060 WS020/20035KT=

USA.gov is the U.S. government's official web portal to all federal, state and local government web resources and services.